sensor_id;sensor_type;location;lat;lon;timestamp;temperature;humidity
54576;DHT22;40472;53.486;14.542;2023-02-01T00:01:13;2.70;99.90
54576;DHT22;40472;53.486;14.542;2023-02-01T00:03:38;2.70;99.90
54576;DHT22;40472;53.486;14.542;2023-02-01T00:06:04;2.70;99.90
54576;DHT22;40472;53.486;14.542;2023-02-01T00:08:30;2.80;99.90
54576;DHT22;40472;53.486;14.542;2023-02-01T00:11:04;2.80;99.90
54576;DHT22;40472;53.486;14.542;2023-02-01T00:13:33;2.80;99.90
54576;DHT22;40472;53.486;14.542;2023-02-01T00:16:07;2.80;99.90
54576;DHT22;40472;53.486;14.542;2023-02-01T00:18:34;2.90;99.90
54576;DHT22;40472;53.486;14.542;2023-02-01T00:20:59;2.90;99.90
54576;DHT22;40472;53.486;14.542;2023-02-01T00:23:25;2.90;99.90
54576;DHT22;40472;53.486;14.542;2023-02-01T00:25:51;2.90;99.90
54576;DHT22;40472;53.486;14.542;2023-02-01T00:28:17;2.90;99.90
54576;DHT22;40472;53.486;14.542;2023-02-01T00:30:43;3.00;99.90
54576;DHT22;40472;53.486;14.542;2023-02-01T00:33:08;3.00;99.90
54576;DHT22;40472;53.486;14.542;2023-02-01T00:35:35;3.00;99.90
54576;DHT22;40472;53.486;14.542;2023-02-01T00:38:01;3.00;99.90
54576;DHT22;40472;53.486;14.542;2023-02-01T00:40:27;3.10;99.90
54576;DHT22;40472;53.486;14.542;2023-02-01T00:42:53;3.10;99.90
54576;DHT22;40472;53.486;14.542;2023-02-01T00:45:19;3.10;99.90
54576;DHT22;40472;53.486;14.542;2023-02-01T00:47:45;3.10;99.90
54576;DHT22;40472;53.486;14.542;2023-02-01T00:50:11;3.10;99.90
54576;DHT22;40472;53.486;14.542;2023-02-01T00:52:37;3.10;99.90
54576;DHT22;40472;53.486;14.542;2023-02-01T00:55:03;3.00;99.90
54576;DHT22;40472;53.486;14.542;2023-02-01T00:57:29;3.00;99.90
54576;DHT22;40472;53.486;14.542;2023-02-01T00:59:54;3.00;99.90
54576;DHT22;40472;53.486;14.542;2023-02-01T01:02:20;3.00;99.90
54576;DHT22;40472;53.486;14.542;2023-02-01T01:04:46;3.00;99.90
54576;DHT22;40472;53.486;14.542;2023-02-01T01:07:12;3.00;99.90
54576;DHT22;40472;53.486;14.542;2023-02-01T01:09:37;2.90;99.90
54576;DHT22;40472;53.486;14.542;2023-02-01T01:12:03;2.90;99.90
54576;DHT22;40472;53.486;14.542;2023-02-01T01:14:30;2.90;99.90
54576;DHT22;40472;53.486;14.542;2023-02-01T01:16:55;2.90;99.90
54576;DHT22;40472;53.486;14.542;2023-02-01T01:19:21;2.80;99.90
54576;DHT22;40472;53.486;14.542;2023-02-01T01:21:47;2.80;99.90
54576;DHT22;40472;53.486;14.542;2023-02-01T01:24:13;2.80;99.90
54576;DHT22;40472;53.486;14.542;2023-02-01T01:26:39;2.70;99.90
54576;DHT22;40472;53.486;14.542;2023-02-01T01:29:05;2.70;99.90
54576;DHT22;40472;53.486;14.542;2023-02-01T01:31:31;2.70;99.90
54576;DHT22;40472;53.486;14.542;2023-02-01T01:33:59;2.80;99.90
54576;DHT22;40472;53.486;14.542;2023-02-01T01:36:26;2.80;99.90
54576;DHT22;40472;53.486;14.542;2023-02-01T01:38:52;2.90;99.90
54576;DHT22;40472;53.486;14.542;2023-02-01T01:41:24;2.90;99.90
54576;DHT22;40472;53.486;14.542;2023-02-01T01:46:26;2.90;99.90
54576;DHT22;40472;53.486;14.542;2023-02-01T01:52:01;2.90;99.90
54576;DHT22;40472;53.486;14.542;2023-02-01T01:54:43;2.90;99.90
54576;DHT22;40472;53.486;14.542;2023-02-01T01:57:40;2.90;99.90
54576;DHT22;40472;53.486;14.542;2023-02-01T02:00:12;2.90;99.90
54576;DHT22;40472;53.486;14.542;2023-02-01T02:02:40;2.90;99.90
54576;DHT22;40472;53.486;14.542;2023-02-01T02:05:08;3.00;99.90
54576;DHT22;40472;53.486;14.542;2023-02-01T02:07:37;3.00;99.90
54576;DHT22;40472;53.486;14.542;2023-02-01T02:10:07;3.10;99.90
54576;DHT22;40472;53.486;14.542;2023-02-01T02:12:44;3.10;99.90
54576;DHT22;40472;53.486;14.542;2023-02-01T02:15:14;3.10;99.90
54576;DHT22;40472;53.486;14.542;2023-02-01T02:18:15;3.10;99.90
54576;DHT22;40472;53.486;14.542;2023-02-01T02:20:59;3.10;99.90
54576;DHT22;40472;53.486;14.542;2023-02-01T02:33:33;3.10;99.90
54576;DHT22;40472;53.486;14.542;2023-02-01T02:35:39;3.20;99.90
54576;DHT22;40472;53.486;14.542;2023-02-01T02:38:14;3.20;99.90
54576;DHT22;40472;53.486;14.542;2023-02-01T02:41:10;3.10;99.90
54576;DHT22;40472;53.486;14.542;2023-02-01T02:43:58;3.10;99.90
54576;DHT22;40472;53.486;14.542;2023-02-01T02:46:48;3.10;99.90
54576;DHT22;40472;53.486;14.542;2023-02-01T02:49:45;3.10;99.90
54576;DHT22;40472;53.486;14.542;2023-02-01T02:52:36;3.10;99.90
54576;DHT22;40472;53.486;14.542;2023-02-01T02:55:24;3.10;99.90
54576;DHT22;40472;53.486;14.542;2023-02-01T02:57:52;3.10;99.90
54576;DHT22;40472;53.486;14.542;2023-02-01T03:00:37;3.20;99.90
54576;DHT22;40472;53.486;14.542;2023-02-01T03:03:22;3.20;99.90
54576;DHT22;40472;53.486;14.542;2023-02-01T03:06:13;3.20;99.90
54576;DHT22;40472;53.486;14.542;2023-02-01T03:08:41;3.20;99.90
54576;DHT22;40472;53.486;14.542;2023-02-01T03:11:13;3.20;99.90
54576;DHT22;40472;53.486;14.542;2023-02-01T03:13:50;3.10;99.90
54576;DHT22;40472;53.486;14.542;2023-02-01T03:16:38;3.20;99.90
54576;DHT22;40472;53.486;14.542;2023-02-01T03:19:22;3.10;99.90
54576;DHT22;40472;53.486;14.542;2023-02-01T03:22:01;3.10;99.90
54576;DHT22;40472;53.486;14.542;2023-02-01T03:24:41;3.10;99.90
54576;DHT22;40472;53.486;14.542;2023-02-01T03:27:16;3.20;99.90
54576;DHT22;40472;53.486;14.542;2023-02-01T03:32:37;3.20;99.90
54576;DHT22;40472;53.486;14.542;2023-02-01T03:35:33;3.20;99.90
54576;DHT22;40472;53.486;14.542;2023-02-01T03:44:24;3.20;99.90
54576;DHT22;40472;53.486;14.542;2023-02-01T03:49:50;3.20;99.90
54576;DHT22;40472;53.486;14.542;2023-02-01T03:52:26;3.20;99.90
54576;DHT22;40472;53.486;14.542;2023-02-01T03:54:54;3.20;99.90
54576;DHT22;40472;53.486;14.542;2023-02-01T03:57:25;3.10;99.90
54576;DHT22;40472;53.486;14.542;2023-02-01T03:59:52;3.10;99.90
54576;DHT22;40472;53.486;14.542;2023-02-01T04:02:18;3.10;99.90
54576;DHT22;40472;53.486;14.542;2023-02-01T04:04:44;3.00;99.90
54576;DHT22;40472;53.486;14.542;2023-02-01T04:07:11;3.00;99.90
54576;DHT22;40472;53.486;14.542;2023-02-01T04:09:37;3.00;99.90
54576;DHT22;40472;53.486;14.542;2023-02-01T04:12:03;3.00;99.90
54576;DHT22;40472;53.486;14.542;2023-02-01T04:14:29;3.00;99.90
54576;DHT22;40472;53.486;14.542;2023-02-01T04:16:54;2.90;99.90
54576;DHT22;40472;53.486;14.542;2023-02-01T04:19:23;2.90;99.90
54576;DHT22;40472;53.486;14.542;2023-02-01T04:21:48;3.00;99.90
54576;DHT22;40472;53.486;14.542;2023-02-01T04:24:14;2.90;99.90
54576;DHT22;40472;53.486;14.542;2023-02-01T04:26:40;2.90;99.90
54576;DHT22;40472;53.486;14.542;2023-02-01T04:29:06;2.80;99.90
54576;DHT22;40472;53.486;14.542;2023-02-01T04:31:31;2.80;99.90
54576;DHT22;40472;53.486;14.542;2023-02-01T04:33:57;2.80;99.90
54576;DHT22;40472;53.486;14.542;2023-02-01T04:36:23;2.80;99.90
54576;DHT22;40472;53.486;14.542;2023-02-01T04:38:50;2.80;99.90
54576;DHT22;40472;53.486;14.542;2023-02-01T04:41:16;2.80;99.90
54576;DHT22;40472;53.486;14.542;2023-02-01T04:43:46;2.80;99.90
54576;DHT22;40472;53.486;14.542;2023-02-01T04:46:12;2.80;99.90
54576;DHT22;40472;53.486;14.542;2023-02-01T04:48:38;2.80;99.90
54576;DHT22;40472;53.486;14.542;2023-02-01T04:51:04;2.80;99.90
54576;DHT22;40472;53.486;14.542;2023-02-01T04:53:29;2.80;99.90
54576;DHT22;40472;53.486;14.542;2023-02-01T04:55:56;2.80;99.90
54576;DHT22;40472;53.486;14.542;2023-02-01T04:58:22;2.80;99.90
54576;DHT22;40472;53.486;14.542;2023-02-01T05:00:47;2.80;99.90
54576;DHT22;40472;53.486;14.542;2023-02-01T05:03:17;2.70;99.90
54576;DHT22;40472;53.486;14.542;2023-02-01T05:05:47;2.70;99.90
54576;DHT22;40472;53.486;14.542;2023-02-01T05:08:14;2.60;99.90
54576;DHT22;40472;53.486;14.542;2023-02-01T05:10:39;2.60;99.90
54576;DHT22;40472;53.486;14.542;2023-02-01T05:13:05;2.60;99.90
54576;DHT22;40472;53.486;14.542;2023-02-01T05:15:50;2.50;99.90
54576;DHT22;40472;53.486;14.542;2023-02-01T05:18:16;2.50;99.90
54576;DHT22;40472;53.486;14.542;2023-02-01T05:20:42;2.50;99.90
54576;DHT22;40472;53.486;14.542;2023-02-01T05:23:08;2.50;99.90
54576;DHT22;40472;53.486;14.542;2023-02-01T05:25:34;2.50;99.90
54576;DHT22;40472;53.486;14.542;2023-02-01T05:27:59;2.40;99.90
54576;DHT22;40472;53.486;14.542;2023-02-01T05:30:28;2.30;99.90
54576;DHT22;40472;53.486;14.542;2023-02-01T05:32:53;2.30;99.90
54576;DHT22;40472;53.486;14.542;2023-02-01T05:35:19;2.20;99.90
54576;DHT22;40472;53.486;14.542;2023-02-01T05:37:45;2.20;99.90
54576;DHT22;40472;53.486;14.542;2023-02-01T05:40:11;2.10;99.90
54576;DHT22;40472;53.486;14.542;2023-02-01T05:42:37;2.10;99.90
54576;DHT22;40472;53.486;14.542;2023-02-01T05:45:03;2.10;99.90
54576;DHT22;40472;53.486;14.542;2023-02-01T05:47:31;2.00;99.90
54576;DHT22;40472;53.486;14.542;2023-02-01T05:50:07;2.00;99.90
54576;DHT22;40472;53.486;14.542;2023-02-01T05:52:38;2.00;99.90
54576;DHT22;40472;53.486;14.542;2023-02-01T05:55:04;2.10;99.90
54576;DHT22;40472;53.486;14.542;2023-02-01T05:57:33;2.10;99.90
54576;DHT22;40472;53.486;14.542;2023-02-01T05:59:59;2.20;99.90
54576;DHT22;40472;53.486;14.542;2023-02-01T06:02:30;2.20;99.90
54576;DHT22;40472;53.486;14.542;2023-02-01T06:04:55;2.30;99.90
54576;DHT22;40472;53.486;14.542;2023-02-01T06:07:21;2.30;99.90
54576;DHT22;40472;53.486;14.542;2023-02-01T06:09:47;2.40;99.90
54576;DHT22;40472;53.486;14.542;2023-02-01T06:12:13;2.40;99.90
54576;DHT22;40472;53.486;14.542;2023-02-01T06:14:39;2.40;99.90
54576;DHT22;40472;53.486;14.542;2023-02-01T06:17:05;2.40;99.90
54576;DHT22;40472;53.486;14.542;2023-02-01T06:19:31;2.40;99.90
54576;DHT22;40472;53.486;14.542;2023-02-01T06:21:57;2.50;99.90
54576;DHT22;40472;53.486;14.542;2023-02-01T06:24:23;2.60;99.90
54576;DHT22;40472;53.486;14.542;2023-02-01T06:26:48;2.60;99.90
54576;DHT22;40472;53.486;14.542;2023-02-01T06:29:14;2.60;99.90
54576;DHT22;40472;53.486;14.542;2023-02-01T06:31:40;2.70;99.90
54576;DHT22;40472;53.486;14.542;2023-02-01T06:34:07;2.70;99.90
54576;DHT22;40472;53.486;14.542;2023-02-01T06:36:33;2.80;99.90
54576;DHT22;40472;53.486;14.542;2023-02-01T06:38:59;2.90;99.90
54576;DHT22;40472;53.486;14.542;2023-02-01T06:41:25;2.90;99.90
54576;DHT22;40472;53.486;14.542;2023-02-01T06:43:51;3.00;99.90
54576;DHT22;40472;53.486;14.542;2023-02-01T06:46:17;3.00;99.90
54576;DHT22;40472;53.486;14.542;2023-02-01T06:48:43;3.10;99.90
54576;DHT22;40472;53.486;14.542;2023-02-01T06:51:27;3.20;99.90
54576;DHT22;40472;53.486;14.542;2023-02-01T06:53:54;3.30;99.90
54576;DHT22;40472;53.486;14.542;2023-02-01T06:56:20;3.30;99.90
54576;DHT22;40472;53.486;14.542;2023-02-01T06:58:46;3.30;99.90
54576;DHT22;40472;53.486;14.542;2023-02-01T07:01:13;3.50;99.90
54576;DHT22;40472;53.486;14.542;2023-02-01T07:03:39;3.40;99.90
54576;DHT22;40472;53.486;14.542;2023-02-01T07:06:06;3.50;99.90
54576;DHT22;40472;53.486;14.542;2023-02-01T07:08:34;3.50;99.90
54576;DHT22;40472;53.486;14.542;2023-02-01T07:11:05;3.50;99.90
54576;DHT22;40472;53.486;14.542;2023-02-01T07:13:31;3.50;99.90
54576;DHT22;40472;53.486;14.542;2023-02-01T07:16:05;3.50;99.90
54576;DHT22;40472;53.486;14.542;2023-02-01T07:18:31;3.40;99.90
54576;DHT22;40472;53.486;14.542;2023-02-01T07:20:57;3.50;99.90
54576;DHT22;40472;53.486;14.542;2023-02-01T07:23:23;3.50;99.90
54576;DHT22;40472;53.486;14.542;2023-02-01T07:25:56;3.50;99.90
54576;DHT22;40472;53.486;14.542;2023-02-01T07:28:22;3.50;99.90
54576;DHT22;40472;53.486;14.542;2023-02-01T07:30:48;3.50;99.90
54576;DHT22;40472;53.486;14.542;2023-02-01T07:33:18;3.50;99.90
54576;DHT22;40472;53.486;14.542;2023-02-01T07:35:43;3.50;99.90
54576;DHT22;40472;53.486;14.542;2023-02-01T07:38:09;3.50;99.90
54576;DHT22;40472;53.486;14.542;2023-02-01T07:40:35;3.50;99.90
54576;DHT22;40472;53.486;14.542;2023-02-01T07:43:00;3.50;99.90
54576;DHT22;40472;53.486;14.542;2023-02-01T07:45:26;3.50;99.90
54576;DHT22;40472;53.486;14.542;2023-02-01T07:47:52;3.60;99.90
54576;DHT22;40472;53.486;14.542;2023-02-01T07:50:20;3.50;99.90
54576;DHT22;40472;53.486;14.542;2023-02-01T07:52:46;3.50;99.90
54576;DHT22;40472;53.486;14.542;2023-02-01T07:55:12;3.50;99.90
54576;DHT22;40472;53.486;14.542;2023-02-01T07:57:38;3.50;99.90
54576;DHT22;40472;53.486;14.542;2023-02-01T08:00:04;3.50;99.90
54576;DHT22;40472;53.486;14.542;2023-02-01T08:02:48;3.50;99.90
54576;DHT22;40472;53.486;14.542;2023-02-01T08:05:14;3.50;99.90
54576;DHT22;40472;53.486;14.542;2023-02-01T08:07:39;3.50;99.90
54576;DHT22;40472;53.486;14.542;2023-02-01T08:10:06;3.50;99.90
54576;DHT22;40472;53.486;14.542;2023-02-01T08:12:36;3.50;99.90
54576;DHT22;40472;53.486;14.542;2023-02-01T08:15:03;3.50;99.90
54576;DHT22;40472;53.486;14.542;2023-02-01T08:17:29;3.50;99.90
54576;DHT22;40472;53.486;14.542;2023-02-01T08:19:55;3.50;99.90
54576;DHT22;40472;53.486;14.542;2023-02-01T08:22:21;3.40;99.90
54576;DHT22;40472;53.486;14.542;2023-02-01T08:24:50;3.40;99.90
54576;DHT22;40472;53.486;14.542;2023-02-01T08:27:15;3.50;99.90
54576;DHT22;40472;53.486;14.542;2023-02-01T08:29:41;3.50;99.90
54576;DHT22;40472;53.486;14.542;2023-02-01T08:32:07;3.50;99.90
54576;DHT22;40472;53.486;14.542;2023-02-01T08:34:33;3.50;99.90
54576;DHT22;40472;53.486;14.542;2023-02-01T08:36:58;3.50;99.90
54576;DHT22;40472;53.486;14.542;2023-02-01T08:39:25;3.50;99.90
54576;DHT22;40472;53.486;14.542;2023-02-01T08:41:51;3.50;99.90
54576;DHT22;40472;53.486;14.542;2023-02-01T08:44:46;3.50;99.90
54576;DHT22;40472;53.486;14.542;2023-02-01T08:47:12;3.50;99.90
54576;DHT22;40472;53.486;14.542;2023-02-01T08:49:38;3.50;99.90
54576;DHT22;40472;53.486;14.542;2023-02-01T08:52:04;3.40;99.90
54576;DHT22;40472;53.486;14.542;2023-02-01T08:54:29;3.40;99.90
54576;DHT22;40472;53.486;14.542;2023-02-01T08:56:55;3.40;99.90
54576;DHT22;40472;53.486;14.542;2023-02-01T08:59:21;3.40;99.90
54576;DHT22;40472;53.486;14.542;2023-02-01T09:01:47;3.40;99.90
54576;DHT22;40472;53.486;14.542;2023-02-01T09:04:13;3.40;99.90
54576;DHT22;40472;53.486;14.542;2023-02-01T09:06:40;3.40;99.90
54576;DHT22;40472;53.486;14.542;2023-02-01T09:09:06;3.40;99.90
54576;DHT22;40472;53.486;14.542;2023-02-01T09:11:32;3.30;99.90
54576;DHT22;40472;53.486;14.542;2023-02-01T09:13:58;3.40;99.90
54576;DHT22;40472;53.486;14.542;2023-02-01T09:16:23;3.40;99.90
54576;DHT22;40472;53.486;14.542;2023-02-01T09:18:49;3.40;99.90
54576;DHT22;40472;53.486;14.542;2023-02-01T09:21:15;3.40;99.90
54576;DHT22;40472;53.486;14.542;2023-02-01T09:23:40;3.40;99.90
54576;DHT22;40472;53.486;14.542;2023-02-01T09:26:06;3.30;99.90
54576;DHT22;40472;53.486;14.542;2023-02-01T09:28:32;3.40;99.90
54576;DHT22;40472;53.486;14.542;2023-02-01T09:30:59;3.30;99.90
54576;DHT22;40472;53.486;14.542;2023-02-01T09:33:26;3.40;99.90
54576;DHT22;40472;53.486;14.542;2023-02-01T09:35:59;3.30;99.90
54576;DHT22;40472;53.486;14.542;2023-02-01T09:38:25;3.40;99.90
54576;DHT22;40472;53.486;14.542;2023-02-01T09:40:53;3.50;99.90
54576;DHT22;40472;53.486;14.542;2023-02-01T09:48:42;3.40;99.90
54576;DHT22;40472;53.486;14.542;2023-02-01T09:51:27;3.40;99.90
54576;DHT22;40472;53.486;14.542;2023-02-01T09:57:02;3.50;99.90
54576;DHT22;40472;53.486;14.542;2023-02-01T10:00:03;3.50;99.90
54576;DHT22;40472;53.486;14.542;2023-02-01T10:02:30;3.60;99.90
54576;DHT22;40472;53.486;14.542;2023-02-01T10:05:01;3.60;99.90
54576;DHT22;40472;53.486;14.542;2023-02-01T10:10:12;3.50;99.90
54576;DHT22;40472;53.486;14.542;2023-02-01T10:24:34;3.60;99.90
54576;DHT22;40472;53.486;14.542;2023-02-01T10:27:13;3.60;99.90
54576;DHT22;40472;53.486;14.542;2023-02-01T10:29:42;3.70;99.90
54576;DHT22;40472;53.486;14.542;2023-02-01T10:32:22;3.70;99.90
54576;DHT22;40472;53.486;14.542;2023-02-01T10:35:00;3.70;99.90
54576;DHT22;40472;53.486;14.542;2023-02-01T10:37:32;3.70;99.90
54576;DHT22;40472;53.486;14.542;2023-02-01T10:40:18;3.70;99.90
54576;DHT22;40472;53.486;14.542;2023-02-01T10:42:47;3.70;99.90
54576;DHT22;40472;53.486;14.542;2023-02-01T10:45:20;3.70;99.90
54576;DHT22;40472;53.486;14.542;2023-02-01T10:47:49;3.70;99.90
54576;DHT22;40472;53.486;14.542;2023-02-01T10:53:30;3.80;99.90
54576;DHT22;40472;53.486;14.542;2023-02-01T10:55:57;3.80;99.90
54576;DHT22;40472;53.486;14.542;2023-02-01T10:58:28;3.90;99.90
54576;DHT22;40472;53.486;14.542;2023-02-01T11:01:01;4.10;99.90
54576;DHT22;40472;53.486;14.542;2023-02-01T11:04:19;4.20;99.90
54576;DHT22;40472;53.486;14.542;2023-02-01T11:06:43;4.20;99.90
54576;DHT22;40472;53.486;14.542;2023-02-01T11:14:17;3.90;99.90
54576;DHT22;40472;53.486;14.542;2023-02-01T11:16:52;3.90;99.90
54576;DHT22;40472;53.486;14.542;2023-02-01T11:19:18;3.80;99.90
54576;DHT22;40472;53.486;14.542;2023-02-01T11:21:49;3.80;99.90
54576;DHT22;40472;53.486;14.542;2023-02-01T11:26:53;3.80;99.90
54576;DHT22;40472;53.486;14.542;2023-02-01T11:29:21;3.70;99.90
54576;DHT22;40472;53.486;14.542;2023-02-01T11:31:56;3.70;99.90
54576;DHT22;40472;53.486;14.542;2023-02-01T11:34:46;3.70;99.90
54576;DHT22;40472;53.486;14.542;2023-02-01T11:37:30;3.70;99.90
54576;DHT22;40472;53.486;14.542;2023-02-01T11:39:59;3.60;99.90
54576;DHT22;40472;53.486;14.542;2023-02-01T11:42:30;3.50;99.90
54576;DHT22;40472;53.486;14.542;2023-02-01T11:45:24;3.40;99.90
54576;DHT22;40472;53.486;14.542;2023-02-01T11:47:54;3.40;99.90
54576;DHT22;40472;53.486;14.542;2023-02-01T11:50:51;3.40;99.90
54576;DHT22;40472;53.486;14.542;2023-02-01T11:56:36;3.10;99.90
54576;DHT22;40472;53.486;14.542;2023-02-01T12:04:56;2.90;99.90
54576;DHT22;40472;53.486;14.542;2023-02-01T12:30:36;2.40;99.90
54576;DHT22;40472;53.486;14.542;2023-02-01T12:46:34;2.50;99.90
54576;DHT22;40472;53.486;14.542;2023-02-01T12:49:08;2.50;99.90
54576;DHT22;40472;53.486;14.542;2023-02-01T12:51:38;2.40;99.90
54576;DHT22;40472;53.486;14.542;2023-02-01T12:56:57;2.40;99.90
54576;DHT22;40472;53.486;14.542;2023-02-01T13:00:36;2.40;99.90
54576;DHT22;40472;53.486;14.542;2023-02-01T13:03:03;2.50;99.90
54576;DHT22;40472;53.486;14.542;2023-02-01T13:08:21;2.60;99.90
54576;DHT22;40472;53.486;14.542;2023-02-01T13:11:03;2.60;99.90
54576;DHT22;40472;53.486;14.542;2023-02-01T13:13:49;2.60;99.90
54576;DHT22;40472;53.486;14.542;2023-02-01T13:16:48;2.70;99.90
54576;DHT22;40472;53.486;14.542;2023-02-01T13:19:29;2.80;99.90
54576;DHT22;40472;53.486;14.542;2023-02-01T13:22:02;2.80;99.90
54576;DHT22;40472;53.486;14.542;2023-02-01T13:26:59;2.70;99.90
54576;DHT22;40472;53.486;14.542;2023-02-01T13:29:28;2.70;99.90
54576;DHT22;40472;53.486;14.542;2023-02-01T13:40:40;2.50;99.90
54576;DHT22;40472;53.486;14.542;2023-02-01T13:43:50;2.30;99.90
54576;DHT22;40472;53.486;14.542;2023-02-01T13:46:16;2.30;99.90
54576;DHT22;40472;53.486;14.542;2023-02-01T13:48:51;2.30;99.90
54576;DHT22;40472;53.486;14.542;2023-02-01T13:51:43;2.40;99.90
54576;DHT22;40472;53.486;14.542;2023-02-01T13:54:43;2.50;99.90
54576;DHT22;40472;53.486;14.542;2023-02-01T14:13:37;2.50;99.90
54576;DHT22;40472;53.486;14.542;2023-02-01T14:23:43;2.50;99.90
54576;DHT22;40472;53.486;14.542;2023-02-01T14:26:18;2.50;99.90
54576;DHT22;40472;53.486;14.542;2023-02-01T14:35:16;2.60;99.90
54576;DHT22;40472;53.486;14.542;2023-02-01T14:42:37;2.70;99.90
54576;DHT22;40472;53.486;14.542;2023-02-01T14:47:50;2.90;99.90
54576;DHT22;40472;53.486;14.542;2023-02-01T14:56:06;2.90;99.90
54576;DHT22;40472;53.486;14.542;2023-02-01T15:01:05;3.00;99.90
54576;DHT22;40472;53.486;14.542;2023-02-01T15:06:04;3.00;99.90
54576;DHT22;40472;53.486;14.542;2023-02-01T15:08:35;3.00;99.90
54576;DHT22;40472;53.486;14.542;2023-02-01T15:11:06;3.00;99.90
54576;DHT22;40472;53.486;14.542;2023-02-01T15:13:32;3.00;99.90
54576;DHT22;40472;53.486;14.542;2023-02-01T15:18:32;3.10;99.90
54576;DHT22;40472;53.486;14.542;2023-02-01T15:21:02;3.10;99.90
54576;DHT22;40472;53.486;14.542;2023-02-01T15:23:28;3.20;99.90
54576;DHT22;40472;53.486;14.542;2023-02-01T15:25:54;3.10;99.90
54576;DHT22;40472;53.486;14.542;2023-02-01T15:28:21;3.20;99.90
54576;DHT22;40472;53.486;14.542;2023-02-01T15:30:58;3.20;99.90
54576;DHT22;40472;53.486;14.542;2023-02-01T15:33:26;3.20;99.90
54576;DHT22;40472;53.486;14.542;2023-02-01T15:38:39;3.30;99.90
54576;DHT22;40472;53.486;14.542;2023-02-01T15:43:45;3.20;99.90
54576;DHT22;40472;53.486;14.542;2023-02-01T15:46:31;3.30;99.90
54576;DHT22;40472;53.486;14.542;2023-02-01T15:48:58;3.30;99.90
54576;DHT22;40472;53.486;14.542;2023-02-01T15:51:27;3.30;99.90
54576;DHT22;40472;53.486;14.542;2023-02-01T15:54:02;3.30;99.90
54576;DHT22;40472;53.486;14.542;2023-02-01T15:56:33;3.30;99.90
54576;DHT22;40472;53.486;14.542;2023-02-01T15:59:01;3.30;99.90
54576;DHT22;40472;53.486;14.542;2023-02-01T16:01:47;3.30;99.90
54576;DHT22;40472;53.486;14.542;2023-02-01T16:04:25;3.20;99.90
54576;DHT22;40472;53.486;14.542;2023-02-01T16:06:58;3.20;99.90
54576;DHT22;40472;53.486;14.542;2023-02-01T16:09:58;3.20;99.90
54576;DHT22;40472;53.486;14.542;2023-02-01T16:12:46;3.10;99.90
54576;DHT22;40472;53.486;14.542;2023-02-01T16:15:13;3.10;99.90
54576;DHT22;40472;53.486;14.542;2023-02-01T16:17:58;3.00;99.90
54576;DHT22;40472;53.486;14.542;2023-02-01T16:20:24;3.00;99.90
54576;DHT22;40472;53.486;14.542;2023-02-01T16:22:50;3.00;99.90
54576;DHT22;40472;53.486;14.542;2023-02-01T16:25:17;3.00;99.90
54576;DHT22;40472;53.486;14.542;2023-02-01T16:27:43;3.00;99.90
54576;DHT22;40472;53.486;14.542;2023-02-01T16:30:28;3.00;99.90
54576;DHT22;40472;53.486;14.542;2023-02-01T16:32:59;3.00;99.90
54576;DHT22;40472;53.486;14.542;2023-02-01T16:35:26;3.00;99.90
54576;DHT22;40472;53.486;14.542;2023-02-01T16:37:52;2.90;99.90
54576;DHT22;40472;53.486;14.542;2023-02-01T16:40:19;2.90;99.90
54576;DHT22;40472;53.486;14.542;2023-02-01T16:42:50;2.80;99.90
54576;DHT22;40472;53.486;14.542;2023-02-01T16:45:17;2.80;99.90
54576;DHT22;40472;53.486;14.542;2023-02-01T16:47:49;2.90;99.90
54576;DHT22;40472;53.486;14.542;2023-02-01T16:50:22;2.90;99.90
54576;DHT22;40472;53.486;14.542;2023-02-01T16:52:48;2.80;99.90
54576;DHT22;40472;53.486;14.542;2023-02-01T16:55:16;2.80;99.90
54576;DHT22;40472;53.486;14.542;2023-02-01T16:57:42;2.80;99.90
54576;DHT22;40472;53.486;14.542;2023-02-01T17:00:10;2.70;99.90
54576;DHT22;40472;53.486;14.542;2023-02-01T17:02:37;2.70;99.90
54576;DHT22;40472;53.486;14.542;2023-02-01T17:05:08;2.70;99.90
54576;DHT22;40472;53.486;14.542;2023-02-01T17:07:34;2.70;99.90
54576;DHT22;40472;53.486;14.542;2023-02-01T17:10:00;2.70;99.90
54576;DHT22;40472;53.486;14.542;2023-02-01T17:12:29;2.60;99.90
54576;DHT22;40472;53.486;14.542;2023-02-01T17:14:56;2.60;99.90
54576;DHT22;40472;53.486;14.542;2023-02-01T17:17:23;2.60;99.90
54576;DHT22;40472;53.486;14.542;2023-02-01T17:19:52;2.60;99.90
54576;DHT22;40472;53.486;14.542;2023-02-01T17:22:19;2.60;99.90
54576;DHT22;40472;53.486;14.542;2023-02-01T17:24:45;2.60;99.90
54576;DHT22;40472;53.486;14.542;2023-02-01T17:27:11;2.50;99.90
54576;DHT22;40472;53.486;14.542;2023-02-01T17:29:37;2.50;99.90
54576;DHT22;40472;53.486;14.542;2023-02-01T17:32:03;2.50;99.90
54576;DHT22;40472;53.486;14.542;2023-02-01T17:34:30;2.50;99.90
54576;DHT22;40472;53.486;14.542;2023-02-01T17:36:56;2.50;99.90
54576;DHT22;40472;53.486;14.542;2023-02-01T17:39:21;2.50;99.90
54576;DHT22;40472;53.486;14.542;2023-02-01T17:42:10;2.50;99.90
54576;DHT22;40472;53.486;14.542;2023-02-01T17:44:36;2.50;99.90
54576;DHT22;40472;53.486;14.542;2023-02-01T17:47:02;2.40;99.90
54576;DHT22;40472;53.486;14.542;2023-02-01T17:49:27;2.50;99.90
54576;DHT22;40472;53.486;14.542;2023-02-01T17:51:54;2.40;99.90
54576;DHT22;40472;53.486;14.542;2023-02-01T17:54:20;2.40;99.90
54576;DHT22;40472;53.486;14.542;2023-02-01T17:56:46;2.40;99.90
54576;DHT22;40472;53.486;14.542;2023-02-01T17:59:15;2.40;99.90
54576;DHT22;40472;53.486;14.542;2023-02-01T18:01:42;2.50;99.90
54576;DHT22;40472;53.486;14.542;2023-02-01T18:04:12;2.50;99.90
54576;DHT22;40472;53.486;14.542;2023-02-01T18:06:38;2.40;99.90
54576;DHT22;40472;53.486;14.542;2023-02-01T18:09:04;2.50;99.90
54576;DHT22;40472;53.486;14.542;2023-02-01T18:11:30;2.50;99.90
54576;DHT22;40472;53.486;14.542;2023-02-01T18:13:58;2.50;99.90
54576;DHT22;40472;53.486;14.542;2023-02-01T18:16:31;2.50;99.90
54576;DHT22;40472;53.486;14.542;2023-02-01T18:18:57;2.50;99.90
54576;DHT22;40472;53.486;14.542;2023-02-01T18:21:32;2.60;99.90
54576;DHT22;40472;53.486;14.542;2023-02-01T18:23:59;2.60;99.90
54576;DHT22;40472;53.486;14.542;2023-02-01T18:26:25;2.60;99.90
54576;DHT22;40472;53.486;14.542;2023-02-01T18:28:51;2.60;99.90
54576;DHT22;40472;53.486;14.542;2023-02-01T18:33:50;2.60;99.90
54576;DHT22;40472;53.486;14.542;2023-02-01T18:36:16;2.60;99.90
54576;DHT22;40472;53.486;14.542;2023-02-01T18:38:42;2.60;99.90
54576;DHT22;40472;53.486;14.542;2023-02-01T18:41:17;2.70;99.90
54576;DHT22;40472;53.486;14.542;2023-02-01T18:43:46;2.70;99.90
54576;DHT22;40472;53.486;14.542;2023-02-01T18:46:13;2.70;99.90
54576;DHT22;40472;53.486;14.542;2023-02-01T18:48:40;2.70;99.90
54576;DHT22;40472;53.486;14.542;2023-02-01T18:51:08;2.60;99.90
54576;DHT22;40472;53.486;14.542;2023-02-01T18:53:34;2.70;99.90